createdAt,value
2019-02-14T00:02:30.617Z,0.1
2019-02-14T00:07:30.806Z,0.1
2019-02-14T00:12:30.602Z,0.1
2019-02-14T00:17:30.769Z,0
2019-02-14T00:22:30.807Z,0
2019-02-14T00:27:30.843Z,0
2019-02-14T00:32:30.639Z,0
2019-02-14T00:37:30.648Z,0
2019-02-14T00:42:30.633Z,0
2019-02-14T00:47:30.875Z,0
2019-02-14T00:52:30.812Z,0
2019-02-14T00:57:30.648Z,0
2019-02-14T01:02:30.644Z,0
2019-02-14T01:07:30.652Z,0
2019-02-14T01:12:31.866Z,0
2019-02-14T01:17:30.839Z,0
2019-02-14T01:22:30.675Z,-0.1
2019-02-14T01:27:30.674Z,-0.1
2019-02-14T01:32:30.662Z,-0.1
2019-02-14T01:37:30.804Z,-0.1
2019-02-14T01:42:30.849Z,-0.1
2019-02-14T01:47:30.665Z,-0.1
2019-02-14T01:52:30.806Z,-0.1
2019-02-14T01:57:30.668Z,-0.1
2019-02-14T02:02:30.795Z,-0.1
2019-02-14T02:07:30.812Z,-0.1
2019-02-14T02:12:30.644Z,-0.1
2019-02-14T02:17:30.690Z,-0.2
2019-02-14T02:22:30.681Z,-0.2
2019-02-14T02:27:30.844Z,-0.3
2019-02-14T02:32:30.890Z,-0.3
2019-02-14T02:37:30.679Z,-0.3
2019-02-14T02:42:30.851Z,-0.3
2019-02-14T02:47:30.902Z,-0.3
2019-02-14T02:52:30.821Z,-0.3
2019-02-14T02:57:30.845Z,-0.4
2019-02-14T03:02:30.704Z,-0.4
2019-02-14T03:07:30.924Z,-0.4
2019-02-14T03:12:30.811Z,-0.4
2019-02-14T03:17:30.697Z,-0.4
2019-02-14T03:22:30.922Z,-0.4
2019-02-14T03:27:30.729Z,-0.5
2019-02-14T03:32:30.886Z,-0.5
2019-02-14T03:37:30.724Z,-0.5
2019-02-14T03:42:30.970Z,-0.5
2019-02-14T03:47:30.718Z,-0.5
2019-02-14T03:52:30.920Z,-0.5
2019-02-14T03:57:30.731Z,-0.5
2019-02-14T04:02:30.882Z,-0.6
2019-02-14T04:07:30.907Z,-0.6
2019-02-14T04:12:30.753Z,-0.6
2019-02-14T04:17:30.892Z,-0.6
2019-02-14T04:22:30.715Z,-0.6
2019-02-14T04:27:30.955Z,-0.6
2019-02-14T04:32:30.760Z,-0.6
2019-02-14T04:37:30.706Z,-0.5
2019-02-14T04:42:30.963Z,-0.5
2019-02-14T04:47:30.852Z,-0.5
2019-02-14T04:52:30.795Z,-0.5
2019-02-14T04:57:30.960Z,-0.5
2019-02-14T05:02:30.769Z,-0.5
2019-02-14T05:07:30.890Z,-0.5
2019-02-14T05:12:30.964Z,-0.6
2019-02-14T05:17:30.754Z,-0.6
2019-02-14T05:22:30.923Z,-0.6
2019-02-14T05:27:30.915Z,-0.7
2019-02-14T05:32:30.789Z,-0.7
2019-02-14T05:37:30.769Z,-0.7
2019-02-14T05:42:30.783Z,-0.7
2019-02-14T05:47:31.008Z,-0.8
2019-02-14T05:52:31.037Z,-0.8
2019-02-14T05:57:30.954Z,-0.8
2019-02-14T06:02:32.224Z,-0.7
2019-02-14T06:07:30.989Z,-0.7
2019-02-14T06:12:30.952Z,-0.7
2019-02-14T06:17:31.001Z,-0.7
2019-02-14T06:22:30.861Z,-0.8
2019-02-14T06:27:30.805Z,-0.7
2019-02-14T06:32:30.951Z,-0.7
2019-02-14T06:37:30.777Z,-0.6
2019-02-14T06:42:30.803Z,-0.6
2019-02-14T06:47:31.000Z,-0.5
2019-02-14T06:52:31.035Z,-0.5
2019-02-14T06:57:31.069Z,-0.4
2019-02-14T07:02:30.815Z,-0.3
2019-02-14T07:07:31.046Z,-0.2
2019-02-14T07:12:31.030Z,-0.1
2019-02-14T07:17:30.842Z,0
2019-02-14T07:22:31.038Z,0
2019-02-14T07:27:30.877Z,0.2
2019-02-14T07:32:30.842Z,0.3
2019-02-14T07:37:31.031Z,0.4
2019-02-14T07:42:31.077Z,0.6
2019-02-14T07:47:30.852Z,0.7
2019-02-14T07:52:30.859Z,0.8
2019-02-14T07:57:30.982Z,0.8
2019-02-14T08:02:31.004Z,0.9
2019-02-14T08:07:35.830Z,1
2019-02-14T08:12:30.881Z,1.1
2019-02-14T08:17:30.869Z,1.3
2019-02-14T08:22:30.988Z,1.5
2019-02-14T08:27:31.072Z,1.6
2019-02-14T08:32:30.894Z,1.8
2019-02-14T08:37:30.861Z,1.9
2019-02-14T08:42:30.999Z,2.1
2019-02-14T08:47:31.115Z,2.3
2019-02-14T08:52:30.845Z,2.4
2019-02-14T08:57:30.885Z,2.6
2019-02-14T09:02:30.999Z,2.8
2019-02-14T09:07:31.032Z,3
2019-02-14T09:12:31.070Z,3.2
2019-02-14T09:17:30.897Z,3.4
2019-02-14T09:22:30.906Z,3.7
2019-02-14T09:27:30.901Z,3.9
2019-02-14T09:32:30.904Z,4
2019-02-14T09:37:31.034Z,4.3
2019-02-14T09:42:31.029Z,4.4
2019-02-14T09:47:31.126Z,4.5
2019-02-14T09:52:30.898Z,4.5
2019-02-14T09:57:31.076Z,4.6
2019-02-14T10:02:30.915Z,4.6
2019-02-14T10:07:31.151Z,4.8
2019-02-14T10:12:30.937Z,5
2019-02-14T10:17:31.101Z,5.2
2019-02-14T10:22:30.934Z,5.2
2019-02-14T10:27:30.924Z,5.3
2019-02-14T10:32:31.068Z,5.5
2019-02-14T10:37:31.148Z,5.6
2019-02-14T10:42:31.070Z,5.6
2019-02-14T10:47:31.110Z,5.7
2019-02-14T10:52:31.151Z,5.7
2019-02-14T10:57:31.178Z,5.7
2019-02-14T11:02:31.073Z,5.6
2019-02-14T11:07:30.965Z,5.5
2019-02-14T11:12:30.953Z,5.6
2019-02-14T11:17:30.957Z,5.8
2019-02-14T11:22:30.961Z,5.9
2019-02-14T11:27:30.969Z,5.9
2019-02-14T11:32:30.979Z,6.2
2019-02-14T11:37:31.160Z,6.3
2019-02-14T11:42:30.969Z,6.5
2019-02-14T11:47:31.223Z,6.7
2019-02-14T11:52:30.988Z,6.7
2019-02-14T11:57:31.152Z,6.9
2019-02-14T12:02:31.077Z,7
2019-02-14T12:07:31.143Z,7.1
2019-02-14T12:12:30.982Z,7.3
2019-02-14T12:17:31.112Z,7.4
2019-02-14T12:22:31.129Z,7.6
2019-02-14T12:27:30.999Z,7.6
2019-02-14T12:32:31.226Z,7.7
2019-02-14T12:37:31.162Z,7.8
2019-02-14T12:42:31.016Z,7.9
2019-02-14T12:47:31.194Z,8
2019-02-14T12:52:31.124Z,8
2019-02-14T12:57:30.994Z,8.1
2019-02-14T13:02:31.266Z,8.2
2019-02-14T13:07:31.252Z,8.2
2019-02-14T13:12:31.016Z,8.3
2019-02-14T13:17:31.234Z,8.3
2019-02-14T13:22:31.145Z,8.4
2019-02-14T13:27:31.037Z,8.4
2019-02-14T13:32:31.228Z,8.5
2019-02-14T13:37:31.280Z,8.5
2019-02-14T13:42:31.190Z,8.5
2019-02-14T13:47:31.163Z,8.5
2019-02-14T13:52:31.051Z,8.6
2019-02-14T13:57:31.015Z,8.6
2019-02-14T14:02:31.053Z,8.5
2019-02-14T14:07:40.063Z,8.5
2019-02-14T14:12:31.185Z,8.4
2019-02-14T14:17:31.245Z,8.5
2019-02-14T14:22:31.263Z,8.5
2019-02-14T14:27:31.225Z,8.4
2019-02-14T14:32:31.039Z,8.3
2019-02-14T14:37:31.085Z,8.3
2019-02-14T14:42:31.049Z,8.3
2019-02-14T14:47:31.100Z,8.3
2019-02-14T14:52:31.233Z,8.2
2019-02-14T14:57:31.309Z,8.2
2019-02-14T15:02:31.228Z,8.1
2019-02-14T15:07:31.261Z,8.1
2019-02-14T15:12:31.096Z,8
2019-02-14T15:17:31.104Z,7.9
2019-02-14T15:22:31.212Z,7.9
2019-02-14T15:27:31.319Z,7.8
2019-02-14T15:32:31.095Z,7.7
2019-02-14T15:37:31.252Z,7.6
2019-02-14T15:42:31.149Z,7.5
2019-02-14T15:47:31.346Z,7.4
2019-02-14T15:52:32.219Z,7.3
2019-02-14T15:57:31.153Z,7.2
2019-02-14T16:02:33.083Z,7.1
2019-02-14T16:07:31.067Z,7
2019-02-14T16:12:31.118Z,6.9
2019-02-14T16:17:32.774Z,6.7
2019-02-14T16:22:31.138Z,6.5
2019-02-14T16:27:31.114Z,6.3
2019-02-14T16:32:31.146Z,6.1
2019-02-14T16:37:31.138Z,5.9
2019-02-14T16:42:31.186Z,5.7
2019-02-14T16:47:31.271Z,5.5
2019-02-14T16:52:31.146Z,5.3
2019-02-14T16:57:31.152Z,5
2019-02-14T17:02:31.185Z,4.8
2019-02-14T17:07:31.145Z,4.7
2019-02-14T17:12:31.172Z,4.5
2019-02-14T17:17:31.200Z,4.4
2019-02-14T17:22:31.176Z,4.2
2019-02-14T17:27:31.154Z,3.9
2019-02-14T17:32:31.150Z,3.8
2019-02-14T17:37:32.191Z,3.6
2019-02-14T17:42:31.290Z,3.5
2019-02-14T17:47:34.289Z,3.4
2019-02-14T17:52:31.540Z,3.2
2019-02-14T17:57:31.179Z,3.1
2019-02-14T18:02:31.177Z,3
2019-02-14T18:07:31.173Z,3
2019-02-14T18:12:31.185Z,2.8
2019-02-14T18:17:31.198Z,2.7
2019-02-14T18:22:31.194Z,2.6
2019-02-14T18:27:31.252Z,2.5
2019-02-14T18:32:31.150Z,2.4
2019-02-14T18:37:31.154Z,2.3
2019-02-14T18:42:31.213Z,2.2
2019-02-14T18:47:40.151Z,2.1
2019-02-14T18:52:31.422Z,2.1
2019-02-14T18:57:31.230Z,2
2019-02-14T19:02:31.203Z,2
2019-02-14T19:07:31.666Z,2
2019-02-14T19:12:31.227Z,2
2019-02-14T19:17:31.915Z,1.9
2019-02-14T19:22:31.941Z,1.8
2019-02-14T19:27:31.943Z,1.8
2019-02-14T19:32:31.960Z,1.8
2019-02-14T19:37:31.902Z,1.8
2019-02-14T19:42:32.203Z,1.7
2019-02-14T19:47:32.116Z,1.7
2019-02-14T19:52:31.949Z,1.7
2019-02-14T19:57:32.185Z,1.7
2019-02-14T20:02:32.118Z,1.6
2019-02-14T20:07:32.165Z,1.6
2019-02-14T20:12:32.181Z,1.5
2019-02-14T20:17:32.346Z,1.5
2019-02-14T20:22:32.033Z,1.5
2019-02-14T20:27:31.967Z,1.4
2019-02-14T20:32:32.269Z,1.4
2019-02-14T20:37:32.088Z,1.3
2019-02-14T20:42:32.300Z,1.3
2019-02-14T20:47:33.610Z,1.2
2019-02-14T20:52:32.588Z,1.2
2019-02-14T20:57:32.242Z,1.2
2019-02-14T21:02:32.029Z,1.2
2019-02-14T21:07:32.146Z,1.1
2019-02-14T21:12:31.994Z,1.1
2019-02-14T21:17:32.243Z,1
2019-02-14T21:22:32.142Z,1
2019-02-14T21:27:35.007Z,1
2019-02-14T21:32:31.998Z,0.9
2019-02-14T21:37:32.010Z,0.9
2019-02-14T21:42:32.206Z,0.8
2019-02-14T21:47:32.227Z,0.8
2019-02-14T21:52:31.991Z,0.8
2019-02-14T21:57:32.034Z,0.7
2019-02-14T22:02:32.058Z,0.7
2019-02-14T22:07:34.795Z,0.7
2019-02-14T22:12:39.467Z,0.6
2019-02-14T22:17:32.257Z,0.6
2019-02-14T22:22:32.151Z,0.6
2019-02-14T22:27:32.029Z,0.6
2019-02-14T22:32:32.025Z,0.6
2019-02-14T22:37:32.159Z,0.6
2019-02-14T22:42:32.186Z,0.5
2019-02-14T22:47:32.236Z,0.5
2019-02-14T22:52:32.235Z,0.4
2019-02-14T22:57:32.189Z,0.4
2019-02-14T23:02:32.218Z,0.3
2019-02-14T23:07:32.045Z,0.3
2019-02-14T23:12:32.179Z,0.2
2019-02-14T23:17:32.213Z,0.2
2019-02-14T23:22:32.275Z,0.1
2019-02-14T23:27:32.192Z,0.1
2019-02-14T23:32:32.050Z,0
2019-02-14T23:37:32.226Z,0
2019-02-14T23:42:32.062Z,0
2019-02-14T23:47:32.053Z,0
2019-02-14T23:52:32.261Z,0
2019-02-14T23:57:32.041Z,0
